Aviation Digital Data Service (ADDS)

Output produced by METARs form (0520 UTC 25 May 2018)
found at http://www.aviationweather.gov/adds/metars/
 
HLLB 250500Z 01010KT 9999 SCT020 19/15 Q1014
TAF HLLB 241700Z 2418/2518 36012KT 8000 SCT030
       
TAF HLTD 241700Z 2418/2518 VRB02KT CAVOK 
     BECMG 2503/2505 06010KT 
     BECMG 2510/2512 VRB02KT
       
TAF HLGT 241700Z 2418/2518 VRB02KT CAVOK 
     BECMG 2518/2520 36010KT
       
TAF HLKF 241700Z 2418/2518 24008KT CAVOK 
     BECMG 2502/2504 03012KT